sensor_id;sensor_type;location;lat;lon;timestamp;P1;durP1;ratioP1;P2;durP2;ratioP2
16522;SDS011;19889;52.546;13.348;2022-08-01T00:01:28;635.50;;;591.60;;
16522;SDS011;19889;52.546;13.348;2022-08-01T00:03:55;618.92;;;577.38;;
16522;SDS011;19889;52.546;13.348;2022-08-01T00:06:22;628.88;;;585.80;;
16522;SDS011;19889;52.546;13.348;2022-08-01T00:08:49;621.58;;;580.40;;
16522;SDS011;19889;52.546;13.348;2022-08-01T00:11:17;620.78;;;579.63;;
16522;SDS011;19889;52.546;13.348;2022-08-01T00:13:44;636.47;;;592.88;;
16522;SDS011;19889;52.546;13.348;2022-08-01T00:16:10;619.08;;;575.10;;
16522;SDS011;19889;52.546;13.348;2022-08-01T00:18:37;632.05;;;590.00;;
16522;SDS011;19889;52.546;13.348;2022-08-01T00:21:04;616.83;;;574.20;;
16522;SDS011;19889;52.546;13.348;2022-08-01T00:23:31;614.80;;;573.08;;
16522;SDS011;19889;52.546;13.348;2022-08-01T00:25:58;623.38;;;581.55;;
16522;SDS011;19889;52.546;13.348;2022-08-01T00:28:27;624.58;;;581.17;;
16522;SDS011;19889;52.546;13.348;2022-08-01T00:30:54;624.13;;;581.63;;
16522;SDS011;19889;52.546;13.348;2022-08-01T00:33:20;620.90;;;578.92;;
16522;SDS011;19889;52.546;13.348;2022-08-01T00:35:47;622.30;;;579.28;;
16522;SDS011;19889;52.546;13.348;2022-08-01T00:38:14;605.47;;;563.28;;
16522;SDS011;19889;52.546;13.348;2022-08-01T00:40:41;617.75;;;575.53;;
16522;SDS011;19889;52.546;13.348;2022-08-01T00:43:07;606.38;;;564.58;;
16522;SDS011;19889;52.546;13.348;2022-08-01T00:45:37;611.28;;;568.20;;
16522;SDS011;19889;52.546;13.348;2022-08-01T00:48:04;609.58;;;568.75;;
16522;SDS011;19889;52.546;13.348;2022-08-01T00:50:31;596.67;;;555.40;;
16522;SDS011;19889;52.546;13.348;2022-08-01T00:52:58;603.83;;;562.40;;
16522;SDS011;19889;52.546;13.348;2022-08-01T00:55:26;610.13;;;569.45;;
16522;SDS011;19889;52.546;13.348;2022-08-01T00:57:53;606.83;;;565.10;;
16522;SDS011;19889;52.546;13.348;2022-08-01T01:00:20;597.05;;;553.70;;
16522;SDS011;19889;52.546;13.348;2022-08-01T01:02:49;600.83;;;556.30;;
16522;SDS011;19889;52.546;13.348;2022-08-01T01:05:16;580.67;;;537.40;;
16522;SDS011;19889;52.546;13.348;2022-08-01T01:07:44;595.92;;;555.97;;
16522;SDS011;19889;52.546;13.348;2022-08-01T01:10:17;589.80;;;546.83;;
16522;SDS011;19889;52.546;13.348;2022-08-01T01:12:50;590.92;;;548.00;;
16522;SDS011;19889;52.546;13.348;2022-08-01T01:15:22;602.25;;;558.10;;
16522;SDS011;19889;52.546;13.348;2022-08-01T01:17:55;596.40;;;554.80;;
16522;SDS011;19889;52.546;13.348;2022-08-01T01:20:27;591.47;;;550.03;;
16522;SDS011;19889;52.546;13.348;2022-08-01T01:23:03;585.00;;;540.78;;
16522;SDS011;19889;52.546;13.348;2022-08-01T01:25:46;585.33;;;544.30;;
16522;SDS011;19889;52.546;13.348;2022-08-01T01:28:29;589.22;;;548.13;;
16522;SDS011;19889;52.546;13.348;2022-08-01T01:31:01;584.15;;;540.63;;
16522;SDS011;19889;52.546;13.348;2022-08-01T01:33:31;578.20;;;536.10;;
16522;SDS011;19889;52.546;13.348;2022-08-01T01:35:59;584.33;;;541.60;;
16522;SDS011;19889;52.546;13.348;2022-08-01T01:38:32;593.35;;;550.55;;
16522;SDS011;19889;52.546;13.348;2022-08-01T01:41:02;590.60;;;546.83;;
16522;SDS011;19889;52.546;13.348;2022-08-01T01:43:31;578.38;;;536.13;;
16522;SDS011;19889;52.546;13.348;2022-08-01T01:45:59;589.70;;;545.22;;
16522;SDS011;19889;52.546;13.348;2022-08-01T01:48:28;594.53;;;551.92;;
16522;SDS011;19889;52.546;13.348;2022-08-01T01:50:55;582.85;;;540.00;;
16522;SDS011;19889;52.546;13.348;2022-08-01T01:53:23;583.97;;;543.90;;
16522;SDS011;19889;52.546;13.348;2022-08-01T01:55:53;579.92;;;536.75;;
16522;SDS011;19889;52.546;13.348;2022-08-01T01:58:21;582.80;;;539.63;;
16522;SDS011;19889;52.546;13.348;2022-08-01T02:00:51;590.35;;;547.25;;
16522;SDS011;19889;52.546;13.348;2022-08-01T02:03:19;583.40;;;538.80;;
16522;SDS011;19889;52.546;13.348;2022-08-01T02:05:47;589.75;;;545.30;;
16522;SDS011;19889;52.546;13.348;2022-08-01T02:08:15;572.20;;;529.53;;
16522;SDS011;19889;52.546;13.348;2022-08-01T02:10:43;583.47;;;537.53;;
16522;SDS011;19889;52.546;13.348;2022-08-01T02:13:32;559.20;;;520.75;;
16522;SDS011;19889;52.546;13.348;2022-08-01T02:16:00;576.58;;;534.38;;
16522;SDS011;19889;52.546;13.348;2022-08-01T02:18:30;574.05;;;531.05;;
16522;SDS011;19889;52.546;13.348;2022-08-01T02:20:57;557.08;;;515.67;;
16522;SDS011;19889;52.546;13.348;2022-08-01T02:23:27;569.85;;;528.85;;
16522;SDS011;19889;52.546;13.348;2022-08-01T02:25:57;566.33;;;523.50;;
16522;SDS011;19889;52.546;13.348;2022-08-01T02:28:28;572.78;;;527.92;;
16522;SDS011;19889;52.546;13.348;2022-08-01T02:31:01;563.72;;;519.78;;
16522;SDS011;19889;52.546;13.348;2022-08-01T02:33:33;569.35;;;524.60;;
16522;SDS011;19889;52.546;13.348;2022-08-01T02:36:04;561.83;;;519.20;;
16522;SDS011;19889;52.546;13.348;2022-08-01T02:38:33;563.58;;;518.45;;
16522;SDS011;19889;52.546;13.348;2022-08-01T02:41:03;564.63;;;522.28;;
16522;SDS011;19889;52.546;13.348;2022-08-01T02:43:33;568.45;;;524.22;;
16522;SDS011;19889;52.546;13.348;2022-08-01T02:46:01;573.35;;;530.70;;
16522;SDS011;19889;52.546;13.348;2022-08-01T02:48:29;561.85;;;519.92;;
16522;SDS011;19889;52.546;13.348;2022-08-01T02:50:59;565.45;;;521.20;;
16522;SDS011;19889;52.546;13.348;2022-08-01T02:53:28;553.45;;;511.90;;
16522;SDS011;19889;52.546;13.348;2022-08-01T02:55:56;567.38;;;523.42;;
16522;SDS011;19889;52.546;13.348;2022-08-01T02:58:24;556.72;;;513.53;;
16522;SDS011;19889;52.546;13.348;2022-08-01T03:00:51;554.60;;;510.88;;
16522;SDS011;19889;52.546;13.348;2022-08-01T03:03:19;567.47;;;523.45;;
16522;SDS011;19889;52.546;13.348;2022-08-01T03:05:47;561.00;;;518.05;;
16522;SDS011;19889;52.546;13.348;2022-08-01T03:08:16;570.22;;;528.17;;
16522;SDS011;19889;52.546;13.348;2022-08-01T03:10:44;557.88;;;517.17;;
16522;SDS011;19889;52.546;13.348;2022-08-01T03:13:12;557.03;;;513.25;;
16522;SDS011;19889;52.546;13.348;2022-08-01T03:15:40;563.97;;;520.90;;
16522;SDS011;19889;52.546;13.348;2022-08-01T03:18:09;547.60;;;504.98;;
16522;SDS011;19889;52.546;13.348;2022-08-01T03:20:37;562.33;;;519.28;;
16522;SDS011;19889;52.546;13.348;2022-08-01T03:23:05;552.78;;;510.92;;
16522;SDS011;19889;52.546;13.348;2022-08-01T03:25:35;566.80;;;522.10;;
16522;SDS011;19889;52.546;13.348;2022-08-01T03:28:03;558.05;;;515.20;;
16522;SDS011;19889;52.546;13.348;2022-08-01T03:30:31;556.08;;;515.05;;
16522;SDS011;19889;52.546;13.348;2022-08-01T03:33:00;551.75;;;511.77;;
16522;SDS011;19889;52.546;13.348;2022-08-01T03:35:30;561.08;;;517.10;;
16522;SDS011;19889;52.546;13.348;2022-08-01T03:37:57;560.25;;;515.90;;
16522;SDS011;19889;52.546;13.348;2022-08-01T03:40:28;552.03;;;506.92;;
16522;SDS011;19889;52.546;13.348;2022-08-01T03:42:59;561.28;;;517.15;;
16522;SDS011;19889;52.546;13.348;2022-08-01T03:45:30;538.45;;;495.60;;
16522;SDS011;19889;52.546;13.348;2022-08-01T03:47:59;547.33;;;502.48;;
16522;SDS011;19889;52.546;13.348;2022-08-01T03:50:27;553.35;;;508.30;;
16522;SDS011;19889;52.546;13.348;2022-08-01T03:52:57;558.97;;;514.53;;
16522;SDS011;19889;52.546;13.348;2022-08-01T03:55:25;547.70;;;504.98;;
16522;SDS011;19889;52.546;13.348;2022-08-01T03:57:53;547.80;;;506.48;;
16522;SDS011;19889;52.546;13.348;2022-08-01T04:00:22;552.45;;;509.02;;
16522;SDS011;19889;52.546;13.348;2022-08-01T04:02:50;545.72;;;503.10;;
16522;SDS011;19889;52.546;13.348;2022-08-01T04:05:17;551.40;;;506.88;;
16522;SDS011;19889;52.546;13.348;2022-08-01T04:07:45;547.72;;;505.02;;
16522;SDS011;19889;52.546;13.348;2022-08-01T04:10:13;548.00;;;505.83;;
16522;SDS011;19889;52.546;13.348;2022-08-01T04:12:40;558.35;;;516.25;;
16522;SDS011;19889;52.546;13.348;2022-08-01T04:15:08;556.83;;;512.53;;
16522;SDS011;19889;52.546;13.348;2022-08-01T04:17:36;545.78;;;502.27;;
16522;SDS011;19889;52.546;13.348;2022-08-01T04:20:04;558.55;;;514.38;;
16522;SDS011;19889;52.546;13.348;2022-08-01T04:22:32;541.30;;;499.88;;
16522;SDS011;19889;52.546;13.348;2022-08-01T04:25:01;555.22;;;512.47;;
16522;SDS011;19889;52.546;13.348;2022-08-01T04:27:29;559.42;;;515.38;;
16522;SDS011;19889;52.546;13.348;2022-08-01T04:29:58;556.55;;;513.45;;
16522;SDS011;19889;52.546;13.348;2022-08-01T04:32:26;551.05;;;506.65;;
16522;SDS011;19889;52.546;13.348;2022-08-01T04:34:56;565.63;;;522.00;;
16522;SDS011;19889;52.546;13.348;2022-08-01T04:37:25;551.45;;;507.85;;
16522;SDS011;19889;52.546;13.348;2022-08-01T04:39:52;551.05;;;506.70;;
16522;SDS011;19889;52.546;13.348;2022-08-01T04:42:21;568.75;;;523.17;;
16522;SDS011;19889;52.546;13.348;2022-08-01T04:44:48;565.88;;;522.03;;
16522;SDS011;19889;52.546;13.348;2022-08-01T04:47:15;561.55;;;518.92;;
16522;SDS011;19889;52.546;13.348;2022-08-01T04:49:43;566.90;;;523.80;;
16522;SDS011;19889;52.546;13.348;2022-08-01T04:52:12;566.15;;;522.28;;
16522;SDS011;19889;52.546;13.348;2022-08-01T04:54:39;568.45;;;524.10;;
16522;SDS011;19889;52.546;13.348;2022-08-01T04:57:06;563.33;;;518.47;;
16522;SDS011;19889;52.546;13.348;2022-08-01T04:59:38;553.90;;;509.67;;
16522;SDS011;19889;52.546;13.348;2022-08-01T05:02:09;556.80;;;513.10;;
16522;SDS011;19889;52.546;13.348;2022-08-01T05:04:38;563.67;;;519.40;;
16522;SDS011;19889;52.546;13.348;2022-08-01T05:07:06;560.78;;;517.85;;
16522;SDS011;19889;52.546;13.348;2022-08-01T05:09:35;547.97;;;503.85;;
16522;SDS011;19889;52.546;13.348;2022-08-01T05:12:03;559.22;;;515.40;;
16522;SDS011;19889;52.546;13.348;2022-08-01T05:14:31;553.35;;;508.60;;
16522;SDS011;19889;52.546;13.348;2022-08-01T05:16:58;564.40;;;521.20;;
16522;SDS011;19889;52.546;13.348;2022-08-01T05:19:28;561.38;;;517.80;;
16522;SDS011;19889;52.546;13.348;2022-08-01T05:21:56;564.75;;;523.30;;
16522;SDS011;19889;52.546;13.348;2022-08-01T05:24:23;562.83;;;520.60;;
16522;SDS011;19889;52.546;13.348;2022-08-01T05:26:51;561.33;;;518.25;;
16522;SDS011;19889;52.546;13.348;2022-08-01T05:29:18;560.17;;;519.10;;
16522;SDS011;19889;52.546;13.348;2022-08-01T05:31:45;551.30;;;509.08;;
16522;SDS011;19889;52.546;13.348;2022-08-01T05:34:12;560.97;;;518.95;;
16522;SDS011;19889;52.546;13.348;2022-08-01T05:36:39;555.10;;;512.33;;
16522;SDS011;19889;52.546;13.348;2022-08-01T05:39:06;545.45;;;504.33;;
16522;SDS011;19889;52.546;13.348;2022-08-01T05:41:33;555.15;;;512.92;;
16522;SDS011;19889;52.546;13.348;2022-08-01T05:44:01;543.92;;;502.15;;
16522;SDS011;19889;52.546;13.348;2022-08-01T05:46:28;565.63;;;519.22;;
16522;SDS011;19889;52.546;13.348;2022-08-01T05:48:55;569.20;;;525.13;;
16522;SDS011;19889;52.546;13.348;2022-08-01T05:51:22;560.72;;;516.08;;
16522;SDS011;19889;52.546;13.348;2022-08-01T05:53:49;558.55;;;516.28;;
16522;SDS011;19889;52.546;13.348;2022-08-01T05:56:16;560.42;;;516.88;;
16522;SDS011;19889;52.546;13.348;2022-08-01T05:58:43;547.70;;;505.15;;
16522;SDS011;19889;52.546;13.348;2022-08-01T06:01:11;564.83;;;520.05;;
16522;SDS011;19889;52.546;13.348;2022-08-01T06:03:38;564.05;;;521.38;;
16522;SDS011;19889;52.546;13.348;2022-08-01T06:06:05;571.38;;;528.25;;
16522;SDS011;19889;52.546;13.348;2022-08-01T06:08:32;573.63;;;529.90;;
16522;SDS011;19889;52.546;13.348;2022-08-01T06:10:58;554.67;;;510.30;;
16522;SDS011;19889;52.546;13.348;2022-08-01T06:13:25;560.85;;;515.95;;
16522;SDS011;19889;52.546;13.348;2022-08-01T06:15:52;560.50;;;516.67;;
16522;SDS011;19889;52.546;13.348;2022-08-01T06:18:20;561.83;;;516.70;;
16522;SDS011;19889;52.546;13.348;2022-08-01T06:20:47;558.13;;;515.05;;
16522;SDS011;19889;52.546;13.348;2022-08-01T06:23:14;554.42;;;511.92;;
16522;SDS011;19889;52.546;13.348;2022-08-01T06:25:41;563.00;;;518.40;;
16522;SDS011;19889;52.546;13.348;2022-08-01T06:28:08;568.78;;;523.83;;
16522;SDS011;19889;52.546;13.348;2022-08-01T06:30:35;568.00;;;524.13;;
16522;SDS011;19889;52.546;13.348;2022-08-01T06:33:02;562.22;;;519.63;;
16522;SDS011;19889;52.546;13.348;2022-08-01T06:35:31;568.63;;;526.00;;
16522;SDS011;19889;52.546;13.348;2022-08-01T06:37:57;572.28;;;529.05;;
16522;SDS011;19889;52.546;13.348;2022-08-01T06:40:24;566.28;;;520.80;;
16522;SDS011;19889;52.546;13.348;2022-08-01T06:42:51;568.20;;;526.75;;
16522;SDS011;19889;52.546;13.348;2022-08-01T06:45:18;586.63;;;541.50;;
16522;SDS011;19889;52.546;13.348;2022-08-01T06:47:47;577.47;;;533.10;;
16522;SDS011;19889;52.546;13.348;2022-08-01T06:50:14;581.70;;;537.13;;
16522;SDS011;19889;52.546;13.348;2022-08-01T06:52:42;571.90;;;528.03;;
16522;SDS011;19889;52.546;13.348;2022-08-01T06:55:09;577.30;;;531.35;;
16522;SDS011;19889;52.546;13.348;2022-08-01T06:57:36;571.38;;;527.45;;
16522;SDS011;19889;52.546;13.348;2022-08-01T07:00:11;581.35;;;536.60;;
16522;SDS011;19889;52.546;13.348;2022-08-01T07:02:38;582.38;;;539.90;;
16522;SDS011;19889;52.546;13.348;2022-08-01T07:05:06;576.17;;;533.40;;
16522;SDS011;19889;52.546;13.348;2022-08-01T07:07:34;570.60;;;527.65;;
16522;SDS011;19889;52.546;13.348;2022-08-01T07:10:02;578.40;;;535.58;;
16522;SDS011;19889;52.546;13.348;2022-08-01T07:12:30;570.00;;;527.83;;
16522;SDS011;19889;52.546;13.348;2022-08-01T07:14:57;566.10;;;522.38;;
16522;SDS011;19889;52.546;13.348;2022-08-01T07:17:24;578.33;;;533.40;;
16522;SDS011;19889;52.546;13.348;2022-08-01T07:19:51;565.10;;;521.08;;
16522;SDS011;19889;52.546;13.348;2022-08-01T07:22:19;570.58;;;526.13;;
16522;SDS011;19889;52.546;13.348;2022-08-01T07:24:46;569.10;;;524.97;;
16522;SDS011;19889;52.546;13.348;2022-08-01T07:27:15;549.90;;;506.48;;
16522;SDS011;19889;52.546;13.348;2022-08-01T07:29:42;562.65;;;515.10;;
16522;SDS011;19889;52.546;13.348;2022-08-01T07:32:08;563.17;;;518.88;;
16522;SDS011;19889;52.546;13.348;2022-08-01T07:34:35;557.30;;;513.78;;
16522;SDS011;19889;52.546;13.348;2022-08-01T07:37:02;566.45;;;522.85;;
16522;SDS011;19889;52.546;13.348;2022-08-01T07:39:29;563.63;;;519.90;;
16522;SDS011;19889;52.546;13.348;2022-08-01T07:41:56;574.28;;;530.60;;
16522;SDS011;19889;52.546;13.348;2022-08-01T07:44:24;571.78;;;528.00;;
16522;SDS011;19889;52.546;13.348;2022-08-01T07:46:51;582.30;;;538.03;;
16522;SDS011;19889;52.546;13.348;2022-08-01T07:49:17;566.60;;;522.80;;
16522;SDS011;19889;52.546;13.348;2022-08-01T07:51:46;569.17;;;523.97;;
16522;SDS011;19889;52.546;13.348;2022-08-01T07:54:13;571.67;;;528.42;;
16522;SDS011;19889;52.546;13.348;2022-08-01T07:56:40;580.88;;;536.67;;
16522;SDS011;19889;52.546;13.348;2022-08-01T07:59:07;558.92;;;514.30;;
16522;SDS011;19889;52.546;13.348;2022-08-01T08:01:35;572.60;;;527.50;;
16522;SDS011;19889;52.546;13.348;2022-08-01T08:04:01;572.80;;;529.22;;
16522;SDS011;19889;52.546;13.348;2022-08-01T08:06:28;566.13;;;520.65;;
16522;SDS011;19889;52.546;13.348;2022-08-01T08:08:55;560.33;;;518.75;;
16522;SDS011;19889;52.546;13.348;2022-08-01T08:11:22;571.28;;;527.53;;
16522;SDS011;19889;52.546;13.348;2022-08-01T08:13:49;560.28;;;517.15;;
16522;SDS011;19889;52.546;13.348;2022-08-01T08:16:15;569.55;;;524.63;;
16522;SDS011;19889;52.546;13.348;2022-08-01T08:18:44;569.97;;;525.63;;
16522;SDS011;19889;52.546;13.348;2022-08-01T08:21:10;575.42;;;530.90;;
16522;SDS011;19889;52.546;13.348;2022-08-01T08:23:37;582.60;;;536.47;;
16522;SDS011;19889;52.546;13.348;2022-08-01T08:26:22;588.63;;;540.50;;
16522;SDS011;19889;52.546;13.348;2022-08-01T08:28:50;575.25;;;531.38;;
16522;SDS011;19889;52.546;13.348;2022-08-01T08:31:17;571.13;;;526.70;;
16522;SDS011;19889;52.546;13.348;2022-08-01T08:33:45;590.97;;;546.95;;
16522;SDS011;19889;52.546;13.348;2022-08-01T08:36:13;608.22;;;562.03;;
16522;SDS011;19889;52.546;13.348;2022-08-01T08:38:39;611.35;;;565.20;;
16522;SDS011;19889;52.546;13.348;2022-08-01T08:41:06;591.63;;;546.80;;
16522;SDS011;19889;52.546;13.348;2022-08-01T08:43:34;599.67;;;553.92;;
16522;SDS011;19889;52.546;13.348;2022-08-01T08:46:01;610.22;;;562.78;;
16522;SDS011;19889;52.546;13.348;2022-08-01T08:48:29;599.72;;;555.17;;
16522;SDS011;19889;52.546;13.348;2022-08-01T08:50:58;602.20;;;556.25;;
16522;SDS011;19889;52.546;13.348;2022-08-01T08:53:27;579.70;;;536.95;;
16522;SDS011;19889;52.546;13.348;2022-08-01T08:55:57;601.20;;;556.30;;
16522;SDS011;19889;52.546;13.348;2022-08-01T08:58:24;592.08;;;548.05;;
16522;SDS011;19889;52.546;13.348;2022-08-01T09:00:53;605.42;;;561.20;;
16522;SDS011;19889;52.546;13.348;2022-08-01T09:03:20;613.30;;;567.60;;
16522;SDS011;19889;52.546;13.348;2022-08-01T09:05:47;611.30;;;565.58;;
16522;SDS011;19889;52.546;13.348;2022-08-01T09:08:15;615.83;;;571.80;;
16522;SDS011;19889;52.546;13.348;2022-08-01T09:10:42;611.00;;;565.72;;
16522;SDS011;19889;52.546;13.348;2022-08-01T09:13:09;609.55;;;563.90;;
16522;SDS011;19889;52.546;13.348;2022-08-01T09:15:38;620.83;;;575.15;;
16522;SDS011;19889;52.546;13.348;2022-08-01T09:18:06;623.67;;;578.53;;
16522;SDS011;19889;52.546;13.348;2022-08-01T09:20:33;622.08;;;576.30;;
16522;SDS011;19889;52.546;13.348;2022-08-01T09:23:00;622.35;;;577.08;;
16522;SDS011;19889;52.546;13.348;2022-08-01T09:25:29;625.55;;;579.55;;
16522;SDS011;19889;52.546;13.348;2022-08-01T09:28:02;621.30;;;576.58;;
16522;SDS011;19889;52.546;13.348;2022-08-01T09:30:36;631.72;;;586.13;;
16522;SDS011;19889;52.546;13.348;2022-08-01T09:33:04;618.20;;;574.20;;
16522;SDS011;19889;52.546;13.348;2022-08-01T09:35:32;612.40;;;566.67;;
16522;SDS011;19889;52.546;13.348;2022-08-01T09:38:11;617.53;;;573.67;;
16522;SDS011;19889;52.546;13.348;2022-08-01T09:40:46;621.08;;;575.45;;
16522;SDS011;19889;52.546;13.348;2022-08-01T09:43:14;611.88;;;565.95;;
16522;SDS011;19889;52.546;13.348;2022-08-01T09:45:41;618.20;;;573.22;;
16522;SDS011;19889;52.546;13.348;2022-08-01T09:48:09;621.67;;;574.70;;
16522;SDS011;19889;52.546;13.348;2022-08-01T09:50:40;612.33;;;566.20;;
16522;SDS011;19889;52.546;13.348;2022-08-01T09:53:08;611.70;;;564.47;;
16522;SDS011;19889;52.546;13.348;2022-08-01T09:55:36;613.92;;;568.17;;
16522;SDS011;19889;52.546;13.348;2022-08-01T10:00:33;600.85;;;555.97;;
16522;SDS011;19889;52.546;13.348;2022-08-01T10:03:01;625.05;;;577.97;;
16522;SDS011;19889;52.546;13.348;2022-08-01T10:05:46;616.30;;;569.90;;
16522;SDS011;19889;52.546;13.348;2022-08-01T10:08:13;609.80;;;565.58;;
16522;SDS011;19889;52.546;13.348;2022-08-01T10:10:41;620.92;;;574.92;;
16522;SDS011;19889;52.546;13.348;2022-08-01T10:13:10;613.10;;;567.63;;
16522;SDS011;19889;52.546;13.348;2022-08-01T10:15:37;613.97;;;566.90;;
16522;SDS011;19889;52.546;13.348;2022-08-01T10:18:06;621.08;;;575.58;;
16522;SDS011;19889;52.546;13.348;2022-08-01T10:20:35;615.70;;;570.55;;
16522;SDS011;19889;52.546;13.348;2022-08-01T10:23:02;608.90;;;564.10;;
16522;SDS011;19889;52.546;13.348;2022-08-01T10:25:35;619.95;;;573.60;;
16522;SDS011;19889;52.546;13.348;2022-08-01T10:28:07;622.78;;;578.05;;
16522;SDS011;19889;52.546;13.348;2022-08-01T10:30:41;625.55;;;579.08;;
16522;SDS011;19889;52.546;13.348;2022-08-01T10:33:08;616.75;;;571.10;;
16522;SDS011;19889;52.546;13.348;2022-08-01T10:35:36;614.40;;;569.47;;
16522;SDS011;19889;52.546;13.348;2022-08-01T10:38:04;619.63;;;574.28;;
16522;SDS011;19889;52.546;13.348;2022-08-01T10:40:32;627.30;;;581.50;;
16522;SDS011;19889;52.546;13.348;2022-08-01T10:42:59;617.03;;;571.15;;
16522;SDS011;19889;52.546;13.348;2022-08-01T10:45:28;622.95;;;577.70;;
16522;SDS011;19889;52.546;13.348;2022-08-01T10:47:56;622.78;;;575.40;;
16522;SDS011;19889;52.546;13.348;2022-08-01T10:50:31;621.70;;;575.78;;
16522;SDS011;19889;52.546;13.348;2022-08-01T10:53:10;615.85;;;569.17;;
16522;SDS011;19889;52.546;13.348;2022-08-01T10:55:46;610.03;;;563.65;;
16522;SDS011;19889;52.546;13.348;2022-08-01T10:58:13;621.42;;;576.13;;
16522;SDS011;19889;52.546;13.348;2022-08-01T11:00:47;618.80;;;571.88;;
16522;SDS011;19889;52.546;13.348;2022-08-01T11:03:14;620.05;;;575.67;;
16522;SDS011;19889;52.546;13.348;2022-08-01T11:05:40;627.25;;;581.25;;
16522;SDS011;19889;52.546;13.348;2022-08-01T11:08:12;630.13;;;584.90;;
16522;SDS011;19889;52.546;13.348;2022-08-01T11:10:47;631.28;;;586.30;;
16522;SDS011;19889;52.546;13.348;2022-08-01T11:16:33;615.25;;;567.05;;
16522;SDS011;19889;52.546;13.348;2022-08-01T11:19:01;618.78;;;573.78;;
16522;SDS011;19889;52.546;13.348;2022-08-01T11:24:53;604.65;;;558.72;;
16522;SDS011;19889;52.546;13.348;2022-08-01T11:27:23;608.75;;;563.55;;
16522;SDS011;19889;52.546;13.348;2022-08-01T11:32:53;603.00;;;557.30;;
16522;SDS011;19889;52.546;13.348;2022-08-01T11:35:21;598.95;;;554.42;;
16522;SDS011;19889;52.546;13.348;2022-08-01T11:37:50;593.25;;;549.08;;
16522;SDS011;19889;52.546;13.348;2022-08-01T11:40:19;608.85;;;563.28;;
16522;SDS011;19889;52.546;13.348;2022-08-01T11:42:48;609.15;;;563.22;;
16522;SDS011;19889;52.546;13.348;2022-08-01T11:45:17;616.70;;;569.28;;
16522;SDS011;19889;52.546;13.348;2022-08-01T11:47:44;616.15;;;570.92;;
16522;SDS011;19889;52.546;13.348;2022-08-01T11:50:33;613.97;;;569.20;;
16522;SDS011;19889;52.546;13.348;2022-08-01T11:53:02;617.28;;;572.22;;
16522;SDS011;19889;52.546;13.348;2022-08-01T11:55:31;622.75;;;576.65;;
16522;SDS011;19889;52.546;13.348;2022-08-01T11:58:00;627.63;;;581.80;;
16522;SDS011;19889;52.546;13.348;2022-08-01T12:00:28;627.58;;;582.00;;
16522;SDS011;19889;52.546;13.348;2022-08-01T12:02:56;640.47;;;593.28;;
16522;SDS011;19889;52.546;13.348;2022-08-01T12:05:25;645.63;;;598.92;;
16522;SDS011;19889;52.546;13.348;2022-08-01T12:07:54;637.13;;;591.22;;
16522;SDS011;19889;52.546;13.348;2022-08-01T12:10:22;645.10;;;598.90;;
16522;SDS011;19889;52.546;13.348;2022-08-01T12:12:50;652.13;;;605.33;;
16522;SDS011;19889;52.546;13.348;2022-08-01T12:15:19;658.78;;;611.33;;
16522;SDS011;19889;52.546;13.348;2022-08-01T12:17:48;658.03;;;610.33;;
16522;SDS011;19889;52.546;13.348;2022-08-01T12:20:19;650.35;;;601.47;;
16522;SDS011;19889;52.546;13.348;2022-08-01T12:22:47;662.70;;;614.72;;
16522;SDS011;19889;52.546;13.348;2022-08-01T12:25:20;664.30;;;616.13;;
16522;SDS011;19889;52.546;13.348;2022-08-01T12:27:47;657.50;;;610.00;;
16522;SDS011;19889;52.546;13.348;2022-08-01T12:30:14;654.95;;;606.33;;
16522;SDS011;19889;52.546;13.348;2022-08-01T12:32:42;663.67;;;616.17;;
16522;SDS011;19889;52.546;13.348;2022-08-01T12:35:11;656.22;;;607.58;;
16522;SDS011;19889;52.546;13.348;2022-08-01T12:37:40;662.80;;;615.75;;
16522;SDS011;19889;52.546;13.348;2022-08-01T12:40:09;674.35;;;626.45;;
16522;SDS011;19889;52.546;13.348;2022-08-01T12:42:39;664.70;;;617.88;;
16522;SDS011;19889;52.546;13.348;2022-08-01T12:45:07;661.72;;;613.92;;
16522;SDS011;19889;52.546;13.348;2022-08-01T12:47:35;648.90;;;602.35;;
16522;SDS011;19889;52.546;13.348;2022-08-01T12:50:04;666.63;;;618.08;;
16522;SDS011;19889;52.546;13.348;2022-08-01T12:52:32;663.28;;;613.58;;
16522;SDS011;19889;52.546;13.348;2022-08-01T12:55:03;668.03;;;618.65;;
16522;SDS011;19889;52.546;13.348;2022-08-01T12:57:35;668.33;;;620.22;;
16522;SDS011;19889;52.546;13.348;2022-08-01T13:00:11;664.10;;;614.90;;
16522;SDS011;19889;52.546;13.348;2022-08-01T13:02:41;670.60;;;622.67;;
16522;SDS011;19889;52.546;13.348;2022-08-01T13:05:08;670.75;;;622.33;;
16522;SDS011;19889;52.546;13.348;2022-08-01T13:07:37;668.72;;;620.97;;
16522;SDS011;19889;52.546;13.348;2022-08-01T13:10:05;664.05;;;616.13;;
16522;SDS011;19889;52.546;13.348;2022-08-01T13:12:33;664.50;;;615.35;;
16522;SDS011;19889;52.546;13.348;2022-08-01T13:17:54;667.53;;;619.90;;
16522;SDS011;19889;52.546;13.348;2022-08-01T13:20:25;654.92;;;606.17;;
16522;SDS011;19889;52.546;13.348;2022-08-01T13:22:54;653.60;;;605.60;;
16522;SDS011;19889;52.546;13.348;2022-08-01T13:25:21;659.35;;;611.88;;
16522;SDS011;19889;52.546;13.348;2022-08-01T13:27:49;665.47;;;617.72;;
16522;SDS011;19889;52.546;13.348;2022-08-01T13:30:35;667.60;;;619.20;;
16522;SDS011;19889;52.546;13.348;2022-08-01T13:33:04;679.95;;;632.00;;
16522;SDS011;19889;52.546;13.348;2022-08-01T13:35:31;664.03;;;616.72;;
16522;SDS011;19889;52.546;13.348;2022-08-01T13:37:57;664.25;;;617.67;;
16522;SDS011;19889;52.546;13.348;2022-08-01T13:40:25;666.42;;;617.72;;
16522;SDS011;19889;52.546;13.348;2022-08-01T13:42:52;666.78;;;619.88;;
16522;SDS011;19889;52.546;13.348;2022-08-01T13:45:21;654.70;;;607.60;;
16522;SDS011;19889;52.546;13.348;2022-08-01T13:47:48;656.45;;;609.45;;
16522;SDS011;19889;52.546;13.348;2022-08-01T13:50:17;657.05;;;609.10;;
16522;SDS011;19889;52.546;13.348;2022-08-01T13:52:43;640.70;;;595.53;;
16522;SDS011;19889;52.546;13.348;2022-08-01T13:55:10;661.17;;;613.95;;
16522;SDS011;19889;52.546;13.348;2022-08-01T13:57:37;651.15;;;604.58;;
16522;SDS011;19889;52.546;13.348;2022-08-01T14:00:04;642.58;;;593.28;;
16522;SDS011;19889;52.546;13.348;2022-08-01T14:02:37;651.33;;;604.78;;
16522;SDS011;19889;52.546;13.348;2022-08-01T14:05:04;652.85;;;605.08;;
16522;SDS011;19889;52.546;13.348;2022-08-01T14:07:34;655.78;;;608.97;;